createdAt,value
2019-02-14T00:01:05.960Z,24.77
2019-02-14T00:03:35.516Z,23.03
2019-02-14T00:06:05.043Z,25.23
2019-02-14T00:08:34.609Z,29.73
2019-02-14T00:11:04.172Z,25.47
2019-02-14T00:13:33.839Z,25.10
2019-02-14T00:16:03.350Z,28.03
2019-02-14T00:18:32.981Z,29.17
2019-02-14T00:21:01.873Z,27.70
2019-02-14T00:23:31.441Z,26.47
2019-02-14T00:26:00.960Z,27.13
2019-02-14T00:28:30.551Z,25.00
2019-02-14T00:31:00.127Z,29.33
2019-02-14T00:33:29.642Z,29.13
2019-02-14T00:35:59.200Z,32.63
2019-02-14T00:38:28.763Z,26.87
2019-02-14T00:40:57.735Z,25.40
2019-02-14T00:43:27.303Z,25.47
2019-02-14T00:45:56.897Z,26.40
2019-02-14T00:48:26.420Z,27.90
2019-02-14T00:50:55.985Z,26.07
2019-02-14T00:53:25.532Z,25.63
2019-02-14T00:55:55.090Z,24.77
2019-02-14T00:58:24.643Z,28.63
2019-02-14T01:00:54.170Z,24.30
2019-02-14T01:03:23.760Z,23.93
2019-02-14T01:05:53.294Z,19.97
2019-02-14T01:08:22.889Z,25.23
2019-02-14T01:10:52.454Z,30.07
2019-02-14T01:13:22.457Z,30.03
2019-02-14T01:15:52.118Z,27.83
2019-02-14T01:18:21.710Z,26.50
2019-02-14T01:20:51.245Z,23.93
2019-02-14T01:23:20.865Z,26.23
2019-02-14T01:25:50.405Z,22.60
2019-02-14T01:28:19.944Z,23.53
2019-02-14T01:30:49.426Z,24.00
2019-02-14T01:33:18.955Z,22.63
2019-02-14T01:35:48.442Z,26.43
2019-02-14T01:38:18.095Z,29.03
2019-02-14T01:40:47.729Z,33.50
2019-02-14T01:43:17.235Z,37.20
2019-02-14T01:45:46.747Z,31.73
2019-02-14T01:48:16.267Z,30.17
2019-02-14T01:50:45.785Z,31.87
2019-02-14T01:53:15.272Z,28.47
2019-02-14T01:55:44.791Z,29.47
2019-02-14T01:58:14.313Z,30.20
2019-02-14T02:00:44.068Z,28.97
2019-02-14T02:03:13.620Z,29.10
2019-02-14T02:05:50.454Z,30.27
2019-02-14T02:08:13.675Z,27.07
2019-02-14T02:10:43.190Z,27.33
2019-02-14T02:13:12.787Z,30.90
2019-02-14T02:15:42.311Z,27.90
2019-02-14T02:18:11.866Z,25.40
2019-02-14T02:20:41.438Z,28.80
2019-02-14T02:23:10.928Z,26.23
2019-02-14T02:25:40.435Z,26.77
2019-02-14T02:28:09.929Z,32.80
2019-02-14T02:30:39.436Z,30.57
2019-02-14T02:33:08.956Z,35.17
2019-02-14T02:35:38.491Z,32.77
2019-02-14T02:38:07.375Z,32.43
2019-02-14T02:40:36.878Z,29.77
2019-02-14T02:43:06.484Z,27.90
2019-02-14T02:45:35.955Z,27.93
2019-02-14T02:48:05.503Z,26.87
2019-02-14T02:50:34.995Z,30.10
2019-02-14T02:53:04.508Z,30.83
2019-02-14T02:55:34.014Z,30.97
2019-02-14T02:58:02.945Z,32.63
2019-02-14T03:00:32.447Z,27.43
2019-02-14T03:03:01.992Z,30.53
2019-02-14T03:05:31.538Z,28.67
2019-02-14T03:08:01.052Z,33.53
2019-02-14T03:10:30.553Z,29.97
2019-02-14T03:13:00.062Z,30.17
2019-02-14T03:15:29.567Z,34.17
2019-02-14T03:17:59.088Z,30.50
2019-02-14T03:20:27.983Z,31.90
2019-02-14T03:22:57.524Z,29.90
2019-02-14T03:25:27.049Z,28.83
2019-02-14T03:27:56.532Z,28.67
2019-02-14T03:30:26.199Z,33.07
2019-02-14T03:32:55.706Z,30.30
2019-02-14T03:35:25.246Z,30.70
2019-02-14T03:37:54.767Z,37.20
2019-02-14T03:40:24.328Z,31.27
2019-02-14T03:42:54.109Z,33.73
2019-02-14T03:45:23.347Z,32.00
2019-02-14T03:47:52.206Z,30.73
2019-02-14T03:50:21.706Z,28.60
2019-02-14T03:52:50.620Z,27.97
2019-02-14T03:55:19.471Z,30.10
2019-02-14T03:57:49.005Z,30.50
2019-02-14T04:00:18.557Z,35.53
2019-02-14T04:02:48.064Z,39.53
2019-02-14T04:05:17.580Z,35.50
2019-02-14T04:07:47.092Z,34.50
2019-02-14T04:10:16.629Z,37.70
2019-02-14T04:12:46.128Z,36.93
2019-02-14T04:15:16.049Z,31.57
2019-02-14T04:17:45.551Z,35.73
2019-02-14T04:20:15.211Z,29.77
2019-02-14T04:22:44.793Z,35.13
2019-02-14T04:25:14.270Z,36.30
2019-02-14T04:27:43.805Z,32.77
2019-02-14T04:30:13.306Z,31.50
2019-02-14T04:32:42.830Z,32.07
2019-02-14T04:35:12.427Z,35.37
2019-02-14T04:37:42.066Z,38.00
2019-02-14T04:40:12.539Z,36.20
2019-02-14T04:42:42.247Z,35.57
2019-02-14T04:45:12.066Z,38.03
2019-02-14T04:47:41.575Z,32.27
2019-02-14T04:50:11.647Z,30.10
2019-02-14T04:52:41.167Z,29.70
2019-02-14T04:55:10.707Z,33.53
2019-02-14T04:57:40.236Z,36.67
2019-02-14T05:00:10.880Z,34.50
2019-02-14T05:02:40.375Z,32.17
2019-02-14T05:05:09.994Z,29.27
2019-02-14T05:07:39.535Z,29.50
2019-02-14T05:10:09.202Z,27.97
2019-02-14T05:12:38.691Z,27.93
2019-02-14T05:15:10.998Z,27.87
2019-02-14T05:17:40.546Z,28.13
2019-02-14T05:20:10.267Z,27.43
2019-02-14T05:22:39.778Z,29.23
2019-02-14T05:25:08.776Z,26.30
2019-02-14T05:27:38.315Z,27.67
2019-02-14T05:30:09.698Z,22.70
2019-02-14T05:32:39.204Z,23.97
2019-02-14T05:35:08.998Z,25.97
2019-02-14T05:37:38.526Z,23.13
2019-02-14T05:40:08.907Z,21.73
2019-02-14T05:42:38.609Z,27.53
2019-02-14T05:45:09.494Z,27.90
2019-02-14T05:47:39.017Z,27.87
2019-02-14T05:50:09.107Z,25.17
2019-02-14T05:52:38.627Z,23.13
2019-02-14T05:55:08.343Z,22.70
2019-02-14T05:57:37.883Z,25.33
2019-02-14T06:00:08.735Z,25.10
2019-02-14T06:02:38.351Z,26.20
2019-02-14T06:05:08.732Z,23.60
2019-02-14T06:07:38.279Z,26.53
2019-02-14T06:10:08.549Z,23.30
2019-02-14T06:12:38.041Z,25.07
2019-02-14T06:15:08.027Z,23.40
2019-02-14T06:17:37.538Z,21.20
2019-02-14T06:20:07.794Z,20.27
2019-02-14T06:22:37.279Z,25.40
2019-02-14T06:25:07.103Z,23.43
2019-02-14T06:27:36.576Z,22.87
2019-02-14T06:30:05.799Z,24.60
2019-02-14T06:32:35.326Z,22.87
2019-02-14T06:35:05.196Z,22.27
2019-02-14T06:37:34.734Z,22.17
2019-02-14T06:40:04.547Z,23.20
2019-02-14T06:42:34.121Z,22.93
2019-02-14T06:45:03.626Z,23.07
2019-02-14T06:47:33.167Z,26.40
2019-02-14T06:50:02.702Z,24.07
2019-02-14T06:52:32.212Z,23.40
2019-02-14T06:55:01.736Z,25.10
2019-02-14T06:57:31.252Z,23.73
2019-02-14T07:00:00.729Z,20.73
2019-02-14T07:02:30.235Z,24.40
2019-02-14T07:04:59.720Z,21.13
2019-02-14T07:07:29.230Z,21.70
2019-02-14T07:09:58.716Z,19.00
2019-02-14T07:12:27.599Z,18.63
2019-02-14T07:14:57.119Z,17.53
2019-02-14T07:17:26.628Z,19.77
2019-02-14T07:19:56.161Z,24.07
2019-02-14T07:22:25.649Z,18.70
2019-02-14T07:24:55.153Z,18.03
2019-02-14T07:27:24.641Z,17.93
2019-02-14T07:29:54.140Z,18.60
2019-02-14T07:32:23.677Z,17.40
2019-02-14T07:34:53.185Z,17.93
2019-02-14T07:37:26.784Z,19.87
2019-02-14T07:39:54.034Z,20.67
2019-02-14T07:42:23.578Z,17.87
2019-02-14T07:44:53.067Z,18.47
2019-02-14T07:47:21.963Z,17.63
2019-02-14T07:49:51.782Z,17.77
2019-02-14T07:52:25.220Z,20.97
2019-02-14T07:54:52.453Z,19.07
2019-02-14T07:57:22.086Z,19.30
2019-02-14T07:59:51.795Z,20.47
2019-02-14T08:02:21.299Z,18.90
2019-02-14T08:04:50.818Z,20.83
2019-02-14T08:07:20.330Z,17.40
2019-02-14T08:09:49.184Z,15.37
2019-02-14T08:12:18.732Z,15.00
2019-02-14T08:14:47.610Z,16.97
2019-02-14T08:17:17.206Z,15.23
2019-02-14T08:19:46.702Z,16.43
2019-02-14T08:22:16.232Z,16.00
2019-02-14T08:24:45.106Z,17.80
2019-02-14T08:27:14.604Z,15.50
2019-02-14T08:29:43.794Z,15.13
2019-02-14T08:32:13.323Z,13.17
2019-02-14T08:34:42.822Z,14.60
2019-02-14T08:37:12.331Z,12.97
2019-02-14T08:39:41.860Z,12.77
2019-02-14T08:42:10.801Z,14.20
2019-02-14T08:44:40.280Z,11.17
2019-02-14T08:47:09.767Z,12.07
2019-02-14T08:49:38.617Z,12.10
2019-02-14T08:52:08.152Z,12.20
2019-02-14T08:54:37.682Z,10.77
2019-02-14T08:57:06.558Z,11.23
2019-02-14T08:59:36.222Z,14.37
2019-02-14T09:02:05.804Z,13.37
2019-02-14T09:04:34.679Z,14.77
2019-02-14T09:07:04.240Z,13.83
2019-02-14T09:09:33.798Z,15.77
2019-02-14T09:12:03.296Z,12.37
2019-02-14T09:14:32.881Z,11.07
2019-02-14T09:17:02.388Z,11.13
2019-02-14T09:19:32.179Z,11.40
2019-02-14T09:22:01.654Z,11.90
2019-02-14T09:24:30.574Z,11.13
2019-02-14T09:27:00.157Z,11.23
2019-02-14T09:29:30.076Z,12.30
2019-02-14T09:31:58.979Z,14.93
2019-02-14T09:34:27.865Z,11.90
2019-02-14T09:36:57.370Z,12.73
2019-02-14T09:39:26.954Z,13.30
2019-02-14T09:41:56.504Z,13.37
2019-02-14T09:44:26.048Z,18.13
2019-02-14T09:46:55.582Z,11.10
2019-02-14T09:49:25.073Z,16.00
2019-02-14T09:51:53.918Z,12.67
2019-02-14T09:54:23.491Z,11.93
2019-02-14T09:56:52.986Z,11.73
2019-02-14T09:59:22.518Z,13.87
2019-02-14T10:01:51.997Z,12.63
2019-02-14T10:04:21.533Z,13.40
2019-02-14T10:06:51.038Z,14.90
2019-02-14T10:09:20.595Z,13.13
2019-02-14T10:11:50.145Z,17.00
2019-02-14T10:14:19.754Z,11.90
2019-02-14T10:16:48.687Z,13.10
2019-02-14T10:19:18.214Z,12.47
2019-02-14T10:21:47.704Z,10.73
2019-02-14T10:24:17.205Z,11.53
2019-02-14T10:26:46.745Z,13.00
2019-02-14T10:29:16.276Z,11.40
2019-02-14T10:31:45.178Z,11.90
2019-02-14T10:34:14.724Z,10.77
2019-02-14T10:36:44.263Z,11.63
2019-02-14T10:39:13.760Z,9.43
2019-02-14T10:41:43.315Z,9.53
2019-02-14T10:44:12.849Z,12.60
2019-02-14T10:46:42.367Z,10.33
2019-02-14T10:49:11.847Z,12.87
2019-02-14T10:51:41.361Z,12.63
2019-02-14T10:54:10.865Z,10.63
2019-02-14T10:56:40.389Z,13.57
2019-02-14T10:59:09.948Z,10.73
2019-02-14T11:01:39.479Z,10.20
2019-02-14T11:04:08.990Z,11.37
2019-02-14T11:06:38.085Z,9.80
2019-02-14T11:09:07.725Z,10.63
2019-02-14T11:11:37.179Z,9.43
2019-02-14T11:14:06.704Z,13.17
2019-02-14T11:16:37.762Z,8.13
2019-02-14T11:19:07.344Z,9.13
2019-02-14T11:21:36.878Z,7.30
2019-02-14T11:24:06.386Z,8.70
2019-02-14T11:26:35.913Z,8.30
2019-02-14T11:29:05.454Z,9.80
2019-02-14T11:31:34.997Z,9.07
2019-02-14T11:34:03.864Z,8.37
2019-02-14T11:36:33.378Z,8.97
2019-02-14T11:39:04.398Z,8.17
2019-02-14T11:41:33.951Z,5.60
2019-02-14T11:44:03.424Z,6.67
2019-02-14T11:46:33.038Z,7.43
2019-02-14T11:49:02.612Z,5.00
2019-02-14T11:51:32.194Z,5.20
2019-02-14T11:54:01.058Z,4.50
2019-02-14T11:56:30.596Z,4.77
2019-02-14T11:59:00.116Z,4.17
2019-02-14T12:01:29.652Z,6.47
2019-02-14T12:03:59.163Z,5.13
2019-02-14T12:06:28.733Z,4.40
2019-02-14T12:09:00.453Z,5.83
2019-02-14T12:11:29.414Z,4.07
2019-02-14T12:13:58.943Z,4.10
2019-02-14T12:16:28.443Z,4.00
2019-02-14T12:18:57.991Z,4.70
2019-02-14T12:21:27.510Z,7.20
2019-02-14T12:23:56.999Z,4.83
2019-02-14T12:26:26.520Z,4.15
2019-02-14T12:28:56.021Z,3.40
2019-02-14T12:31:25.522Z,3.27
2019-02-14T12:33:55.010Z,2.98
2019-02-14T12:36:24.504Z,3.72
2019-02-14T12:38:54.102Z,2.85
2019-02-14T12:41:23.619Z,3.83
2019-02-14T12:43:53.111Z,3.00
2019-02-14T12:46:22.687Z,3.00
2019-02-14T12:48:52.155Z,4.15
2019-02-14T12:51:21.124Z,3.23
2019-02-14T12:53:50.593Z,3.80
2019-02-14T12:56:20.154Z,3.37
2019-02-14T12:58:49.676Z,3.52
2019-02-14T13:01:18.536Z,2.87
2019-02-14T13:03:48.072Z,2.80
2019-02-14T13:06:17.527Z,3.87
2019-02-14T13:08:47.044Z,4.47
2019-02-14T13:11:15.920Z,2.20
2019-02-14T13:13:49.648Z,2.30
2019-02-14T13:16:16.630Z,2.52
2019-02-14T13:18:46.166Z,2.50
2019-02-14T13:21:15.038Z,2.33
2019-02-14T13:23:44.553Z,2.27
2019-02-14T13:26:13.486Z,2.90
2019-02-14T13:28:42.959Z,1.93
2019-02-14T13:31:11.891Z,2.67
2019-02-14T13:33:40.767Z,1.87
2019-02-14T13:36:09.658Z,1.97
2019-02-14T13:38:40.279Z,1.70
2019-02-14T13:41:09.206Z,1.73
2019-02-14T13:43:38.787Z,1.98
2019-02-14T13:46:10.494Z,1.60
2019-02-14T13:48:40.060Z,2.00
2019-02-14T13:51:09.853Z,1.98
2019-02-14T13:53:39.308Z,2.22
2019-02-14T13:56:08.802Z,2.08
2019-02-14T13:58:38.759Z,1.47
2019-02-14T14:01:08.699Z,1.42
2019-02-14T14:03:38.212Z,3.08
2019-02-14T14:06:07.743Z,2.08
2019-02-14T14:08:37.357Z,1.87
2019-02-14T14:11:06.849Z,1.60
2019-02-14T14:13:36.391Z,2.40
2019-02-14T14:16:05.859Z,1.60
2019-02-14T14:18:35.451Z,1.90
2019-02-14T14:21:04.982Z,2.00
2019-02-14T14:23:34.510Z,1.80
2019-02-14T14:26:04.132Z,1.40
2019-02-14T14:28:32.987Z,1.95
2019-02-14T14:31:02.511Z,1.67
2019-02-14T14:33:32.013Z,1.60
2019-02-14T14:36:01.529Z,1.77
2019-02-14T14:38:31.206Z,2.52
2019-02-14T14:41:00.756Z,1.82
2019-02-14T14:43:38.220Z,1.95
2019-02-14T14:46:14.896Z,1.98
2019-02-14T14:48:44.705Z,1.70
2019-02-14T14:51:14.219Z,1.62
2019-02-14T14:53:43.747Z,2.02
2019-02-14T14:56:13.277Z,2.12
2019-02-14T14:58:42.852Z,2.33
2019-02-14T15:01:12.367Z,1.92
2019-02-14T15:03:41.868Z,2.37
2019-02-14T15:06:11.421Z,3.40
2019-02-14T15:08:40.913Z,3.17
2019-02-14T15:11:10.446Z,2.33
2019-02-14T15:13:39.949Z,1.95
2019-02-14T15:16:09.487Z,2.10
2019-02-14T15:18:39.004Z,2.58
2019-02-14T15:21:08.527Z,2.50
2019-02-14T15:23:38.050Z,2.17
2019-02-14T15:26:07.561Z,2.83
2019-02-14T15:28:37.570Z,3.02
2019-02-14T15:31:07.283Z,2.30
2019-02-14T15:33:36.768Z,2.50
2019-02-14T15:36:06.299Z,3.10
2019-02-14T15:38:37.033Z,2.80
2019-02-14T15:41:06.713Z,3.83
2019-02-14T15:43:36.280Z,2.67
2019-02-14T15:46:05.817Z,4.03
2019-02-14T15:48:35.347Z,3.12
2019-02-14T15:51:04.856Z,3.27
2019-02-14T15:53:33.818Z,2.58
2019-02-14T15:56:05.355Z,2.92
2019-02-14T15:58:34.805Z,2.90
2019-02-14T16:01:03.771Z,2.40
2019-02-14T16:03:33.279Z,3.40
2019-02-14T16:06:04.495Z,2.80
2019-02-14T16:08:33.448Z,4.05
2019-02-14T16:11:02.308Z,2.65
2019-02-14T16:13:33.666Z,2.90
2019-02-14T16:16:02.973Z,2.50
2019-02-14T16:18:32.513Z,2.62
2019-02-14T16:21:03.626Z,3.25
2019-02-14T16:23:34.341Z,3.08
2019-02-14T16:26:04.172Z,7.33
2019-02-14T16:28:33.638Z,3.00
2019-02-14T16:31:03.234Z,3.27
2019-02-14T16:33:32.756Z,3.97
2019-02-14T16:36:02.334Z,3.30
2019-02-14T16:38:33.145Z,3.53
2019-02-14T16:41:02.974Z,3.37
2019-02-14T16:43:32.459Z,3.43
2019-02-14T16:46:01.969Z,4.93
2019-02-14T16:48:31.500Z,4.93
2019-02-14T16:51:01.020Z,5.40
2019-02-14T16:53:30.570Z,4.60
2019-02-14T16:56:02.128Z,3.50
2019-02-14T16:58:31.248Z,4.13
2019-02-14T17:01:00.707Z,3.47
2019-02-14T17:03:30.270Z,3.57
2019-02-14T17:05:59.798Z,4.63
2019-02-14T17:08:29.329Z,5.63
2019-02-14T17:10:58.954Z,8.40
2019-02-14T17:13:28.506Z,6.43
2019-02-14T17:15:58.051Z,5.60
2019-02-14T17:18:27.560Z,5.10
2019-02-14T17:20:57.107Z,4.47
2019-02-14T17:23:26.607Z,6.67
2019-02-14T17:25:56.135Z,5.80
2019-02-14T17:28:25.736Z,7.30
2019-02-14T17:30:55.256Z,7.27
2019-02-14T17:33:24.767Z,9.17
2019-02-14T17:35:54.265Z,7.67
2019-02-14T17:38:23.756Z,6.50
2019-02-14T17:40:53.251Z,5.87
2019-02-14T17:43:22.763Z,5.30
2019-02-14T17:45:52.307Z,5.13
2019-02-14T17:48:21.804Z,6.07
2019-02-14T17:50:51.312Z,5.77
2019-02-14T17:53:20.835Z,7.33
2019-02-14T17:55:50.328Z,6.63
2019-02-14T17:58:19.829Z,4.30
2019-02-14T18:00:49.352Z,5.57
2019-02-14T18:03:18.251Z,5.13
2019-02-14T18:05:47.772Z,5.33
2019-02-14T18:08:17.312Z,4.87
2019-02-14T18:10:54.548Z,5.10
2019-02-14T18:13:17.971Z,6.03
2019-02-14T18:15:47.474Z,8.20
2019-02-14T18:18:17.003Z,6.60
2019-02-14T18:20:46.531Z,9.97
2019-02-14T18:23:16.047Z,8.23
2019-02-14T18:25:45.550Z,9.83
2019-02-14T18:28:15.128Z,7.90
2019-02-14T18:30:44.614Z,9.90
2019-02-14T18:33:14.103Z,8.73
2019-02-14T18:35:43.604Z,8.47
2019-02-14T18:38:13.155Z,8.30
2019-02-14T18:40:42.702Z,6.00
2019-02-14T18:43:12.199Z,7.80
2019-02-14T18:45:41.738Z,6.37
2019-02-14T18:48:11.252Z,6.43
2019-02-14T18:50:40.747Z,6.77
2019-02-14T18:53:09.587Z,5.63
2019-02-14T18:55:39.111Z,7.40
2019-02-14T18:58:08.639Z,6.07
2019-02-14T19:00:38.175Z,6.30
2019-02-14T19:03:07.642Z,5.97
2019-02-14T19:05:37.199Z,4.90
2019-02-14T19:08:06.693Z,5.50
2019-02-14T19:10:35.609Z,5.77
2019-02-14T19:13:05.159Z,5.93
2019-02-14T19:15:34.614Z,6.20
2019-02-14T19:18:04.121Z,6.60
2019-02-14T19:20:33.642Z,11.67
2019-02-14T19:23:03.145Z,10.53
2019-02-14T19:25:32.635Z,11.53
2019-02-14T19:28:02.212Z,11.40
2019-02-14T19:30:31.707Z,8.67
2019-02-14T19:33:01.235Z,8.83
2019-02-14T19:35:30.732Z,28.50
2019-02-14T19:38:00.238Z,19.13
2019-02-14T19:40:29.762Z,12.73
2019-02-14T19:42:59.230Z,9.83
2019-02-14T19:45:36.222Z,10.30
2019-02-14T19:47:59.951Z,9.67
2019-02-14T19:50:29.483Z,10.50
2019-02-14T19:52:58.992Z,9.00
2019-02-14T19:55:28.490Z,6.63
2019-02-14T19:57:59.169Z,7.40
2019-02-14T20:00:28.514Z,6.37
2019-02-14T20:02:58.045Z,7.97
2019-02-14T20:05:27.582Z,7.57
2019-02-14T20:07:56.442Z,8.70
2019-02-14T20:10:25.969Z,8.60
2019-02-14T20:12:55.465Z,5.47
2019-02-14T20:15:24.974Z,8.20
2019-02-14T20:17:54.465Z,6.33
2019-02-14T20:20:24.012Z,6.63
2019-02-14T20:22:53.512Z,7.77
2019-02-14T20:25:23.896Z,7.80
2019-02-14T20:27:53.419Z,10.87
2019-02-14T20:30:22.947Z,8.63
2019-02-14T20:32:52.478Z,9.10
2019-02-14T20:35:22.001Z,11.17
2019-02-14T20:37:50.872Z,8.37
2019-02-14T20:40:20.387Z,8.17
2019-02-14T20:42:49.901Z,9.30
2019-02-14T20:45:19.502Z,11.10
2019-02-14T20:47:49.063Z,8.50
2019-02-14T20:50:18.566Z,10.40
2019-02-14T20:52:48.127Z,8.60
2019-02-14T20:55:17.952Z,9.27
2019-02-14T20:57:47.519Z,12.57
2019-02-14T21:00:30.633Z,9.33
2019-02-14T21:03:00.149Z,9.53
2019-02-14T21:05:29.064Z,9.27
2019-02-14T21:07:58.572Z,7.67
2019-02-14T21:10:28.124Z,12.47
2019-02-14T21:12:58.036Z,14.50
2019-02-14T21:15:27.658Z,11.33
2019-02-14T21:17:57.171Z,17.83
2019-02-14T21:20:26.134Z,18.13
2019-02-14T21:22:55.658Z,17.57
2019-02-14T21:25:25.180Z,13.20
2019-02-14T21:27:54.700Z,11.63
2019-02-14T21:30:24.385Z,16.10
2019-02-14T21:32:53.857Z,12.63
2019-02-14T21:35:23.369Z,12.47
2019-02-14T21:37:52.857Z,10.93
2019-02-14T21:40:22.521Z,12.97
2019-02-14T21:42:52.073Z,10.97
2019-02-14T21:45:21.619Z,9.30
2019-02-14T21:47:51.313Z,9.83
2019-02-14T21:50:20.788Z,10.73
2019-02-14T21:52:50.373Z,11.67
2019-02-14T21:55:19.900Z,9.33
2019-02-14T21:57:49.446Z,10.07
2019-02-14T22:00:19.900Z,15.17
2019-02-14T22:02:49.444Z,10.27
2019-02-14T22:05:24.374Z,14.03
2019-02-14T22:07:50.107Z,15.30
2019-02-14T22:10:19.651Z,16.30
2019-02-14T22:12:49.173Z,14.23
2019-02-14T22:15:18.673Z,14.50
2019-02-14T22:17:48.241Z,16.03
2019-02-14T22:20:17.875Z,15.20
2019-02-14T22:22:47.412Z,12.13
2019-02-14T22:25:16.899Z,12.17
2019-02-14T22:27:46.399Z,13.40
2019-02-14T22:30:16.432Z,16.03
2019-02-14T22:32:46.117Z,14.33
2019-02-14T22:35:15.766Z,13.77
2019-02-14T22:37:45.311Z,13.03
2019-02-14T22:40:14.994Z,12.80
2019-02-14T22:42:47.579Z,14.53
2019-02-14T22:45:16.005Z,12.27
2019-02-14T22:47:45.005Z,11.37
2019-02-14T22:50:14.527Z,12.33
2019-02-14T22:52:44.017Z,10.50
2019-02-14T22:55:13.558Z,11.90
2019-02-14T22:57:43.087Z,12.83
2019-02-14T23:00:32.478Z,13.23
2019-02-14T23:03:01.989Z,13.10
2019-02-14T23:05:31.529Z,12.37
2019-02-14T23:08:01.023Z,12.10
2019-02-14T23:10:30.537Z,13.67
2019-02-14T23:13:00.043Z,11.50
2019-02-14T23:15:29.628Z,10.40
2019-02-14T23:17:59.158Z,10.73
2019-02-14T23:20:28.655Z,10.03
2019-02-14T23:22:58.182Z,11.60
2019-02-14T23:25:27.708Z,10.73
2019-02-14T23:27:57.409Z,11.50
2019-02-14T23:30:26.918Z,9.53
2019-02-14T23:32:56.414Z,11.90
2019-02-14T23:35:25.982Z,11.87
2019-02-14T23:37:55.510Z,11.30
2019-02-14T23:40:25.262Z,10.73
2019-02-14T23:42:54.807Z,10.47
2019-02-14T23:45:24.348Z,8.40
2019-02-14T23:47:53.875Z,9.90
2019-02-14T23:50:23.384Z,10.47
2019-02-14T23:52:52.911Z,12.13
2019-02-14T23:55:22.418Z,9.03
2019-02-14T23:57:51.919Z,9.67
